Главная страница
METAR-TAF:

METAR-TAF

Аэропорты :

Триполи, Ливия

широта: 32-54N, долгота: 13-17E, высота над уровнем моря: 11 м

Текущие метеонаблюдения

Эта сводка был подготовлена 50 минут назад, в 14:50 UTC
Ветер 10 Узел от северо-восточный
Температура 30°C
Влажность 59%
Давление 1015 hPa
Видимость: 8000 м
небольшая облачность на высоте 3000 фута
Отдельные облака на высоте 10000 фута

METAR: HLLM 191450Z 05010KT 8000 FEW030 SCT100 30/21 Q1015

Время: 17:40 (15:40 UTC)

Прогноз

Эта сводка был подготовлена 4 часа и 40 минут назад, в 11:00 UTC
Прогноз действительный с 19-го 12 UTC до 20-го 12 UTC
Ветер 12 Узел от восточно-северо-восточный
Видимость: 8000 м
Отдельные облака на высоте 3000 фута
изменения
С 19-го 20 UTC до 19-го 22 UTC
Ветер 2 Узел переменных направлений

TAF: HLLM 191100Z 1912/2012 06012KT 8000 SCT030 BECMG 1920/1922 VRB02KT

Метеонаблюдения и прогнозы для более 4000 аэропортов (сводки METAR и TAF).

Имеющиеся станции представлены на карте желтыми и красными точками.

Чтобы увидеть название станции, наведите на нее мышь.

Затем щелкните, чтобы увидеть метеонаблюдения и метеопрогнозы.

Управление картой: чтобы увеличить масштаб, щелкните зеленые кнопки с черным крестиком; чтобы уменьшить масштаб, щелкните зеленую кнопку с тире; для просмотра соседних карт щелкайте зеленые стрелки.


METAR-TAF: